Portada
METAR-TAF:

METAR-TAF

Aeropuertos :

Carcasona, Francia

latitud: 43-13N, longitud: 002-19E, altitud: 130 m

Observación

El informe se hizo hace 21 minutos, a las 03:00 UTC
Viento 5 kt del este-sureste, variando entre este-noreste y sur-sureste
Temperatura 10°C
Humedad 93%
Presión 1020 hPa
Visibilidad 10 km o más
Cielo nuboso a una altura de 800 ft
Cielo cubierto a una altura de 1200 ft

METAR: LFMK 240300Z AUTO 11005KT 070V160 9999 BKN008 OVC012 10/09 Q1020 TEMPO DZ

Hora: 04:21 (03:21 UTC)

Pronóstico

El informe se hizo hace 1 hora y 21 minutos, a las 02:00 UTC
Pronóstico válido del 24 a las 03 UTC al 25 a las 03 UTC
Viento 10 kt del este
Visibilidad 10 km o más
Nubes dispersas a una altura de 600 ft
Cielo nuboso a una altura de 2500 ft
Temporalmente
del 24 a las 03 UTC al 24 a las 12 UTC
Cielo nuboso a una altura de 500 ft
Cielo nuboso a una altura de 1500 ft
llovizna

TAF: LFMK 240200Z 2403/2503 09010KT 9999 SCT006 BKN025 TEMPO 2403/2412 DZ BKN005 BKN015

Observaciones y pronósticos meteorológicos de más de 4000 aeropuertos (mensajes METAR y TAF).

Los puntos amarillos y rojos representan las estaciones disponibles.

Ponga el ratón en el punto deseado para ver el nombre de la estación.

Haga clic para ver las observaciones y los pronósticos meteorológicos.

Para cambiar el mapa : haga clic en los botones verdes con una cruz de color negro para hacer un zoom, en el botón verde con un guión para alejar o en las flechas verdes para mapas adyacentes.


METAR-TAF: